createdAt,value
2022-08-26T00:06:33.070Z,3.40
2022-08-26T00:09:08.107Z,4.10
2022-08-26T00:12:17.830Z,3.70
2022-08-26T00:15:12.636Z,4.00
2022-08-26T00:18:22.549Z,3.90
2022-08-26T00:21:30.318Z,4.10
2022-08-26T00:24:03.289Z,3.30
2022-08-26T00:30:42.059Z,3.50
2022-08-26T00:33:14.781Z,3.80
2022-08-26T00:36:25.594Z,3.40
2022-08-26T00:46:00.035Z,3.90
2022-08-26T00:49:34.724Z,3.60
2022-08-26T00:52:27.453Z,3.70
2022-08-26T00:55:38.248Z,3.70
2022-08-26T00:59:05.621Z,3.10
2022-08-26T01:02:20.826Z,3.60
2022-08-26T01:05:14.568Z,3.20
2022-08-26T01:08:07.216Z,3.60
2022-08-26T01:11:35.605Z,3.60
2022-08-26T01:14:31.608Z,3.20
2022-08-26T01:17:22.469Z,3.30
2022-08-26T01:20:25.228Z,3.30
2022-08-26T01:23:16.399Z,3.30
2022-08-26T01:25:54.296Z,3.90
2022-08-26T01:31:57.016Z,3.40
2022-08-26T01:37:42.458Z,4.10
2022-08-26T01:40:37.833Z,4.00
2022-08-26T01:47:13.338Z,3.50
2022-08-26T01:49:49.401Z,3.50
2022-08-26T01:53:20.159Z,3.50
2022-08-26T01:56:14.358Z,4.10
2022-08-26T01:59:24.166Z,3.90
2022-08-26T02:01:57.308Z,4.50
2022-08-26T02:04:51.822Z,3.90
2022-08-26T02:07:26.860Z,4.20
2022-08-26T02:12:50.123Z,4.00
2022-08-26T02:15:24.349Z,3.60
2022-08-26T02:17:56.962Z,3.70
2022-08-26T02:20:48.003Z,3.40
2022-08-26T02:23:25.313Z,3.20
2022-08-26T02:26:02.519Z,3.40
2022-08-26T02:29:46.095Z,3.90
2022-08-26T02:32:54.848Z,3.50
2022-08-26T02:36:06.925Z,4.30
2022-08-26T02:41:51.747Z,3.60
2022-08-26T02:44:59.752Z,3.90
2022-08-26T02:51:17.205Z,4.30
2022-08-26T02:54:42.831Z,4.40
2022-08-26T02:57:52.069Z,5.20
2022-08-26T03:00:52.661Z,4.60
2022-08-26T03:04:04.459Z,4.40
2022-08-26T03:10:37.929Z,4.20
2022-08-26T03:13:47.303Z,4.10
2022-08-26T03:16:22.417Z,4.20
2022-08-26T03:18:56.527Z,4.30
2022-08-26T03:24:22.274Z,3.90
2022-08-26T03:26:55.525Z,4.80
2022-08-26T03:30:03.854Z,5.10
2022-08-26T03:33:11.889Z,5.00
2022-08-26T03:35:47.543Z,4.60
2022-08-26T03:38:58.520Z,4.30
2022-08-26T03:45:51.296Z,4.70
2022-08-26T03:55:00.344Z,3.60
2022-08-26T03:57:37.026Z,4.30
2022-08-26T04:00:27.302Z,3.80
2022-08-26T04:03:00.362Z,4.30
2022-08-26T04:05:51.074Z,4.20
2022-08-26T04:08:25.081Z,4.30
2022-08-26T04:11:22.918Z,3.90
2022-08-26T04:14:32.607Z,3.90
2022-08-26T04:17:40.586Z,4.30
2022-08-26T04:32:37.607Z,3.50
2022-08-26T04:35:11.899Z,4.10
2022-08-26T04:38:20.232Z,4.40
2022-08-26T04:41:29.549Z,4.50
2022-08-26T04:44:25.785Z,5.90
2022-08-26T04:47:36.582Z,5.00
2022-08-26T04:50:44.282Z,4.30
2022-08-26T04:53:39.727Z,4.40
2022-08-26T04:56:31.733Z,5.00
2022-08-26T04:59:22.796Z,4.60
2022-08-26T05:01:59.709Z,4.40
2022-08-26T05:05:43.479Z,4.00
2022-08-26T05:08:18.121Z,4.30
2022-08-26T05:11:45.900Z,3.60
2022-08-26T05:14:42.873Z,3.60
2022-08-26T05:17:51.860Z,4.10
2022-08-26T05:21:02.388Z,4.10
2022-08-26T05:23:55.007Z,3.80
2022-08-26T05:26:45.577Z,3.80
2022-08-26T05:32:44.089Z,4.10
2022-08-26T05:35:17.707Z,3.20
2022-08-26T05:38:12.923Z,3.80
2022-08-26T05:41:38.396Z,3.40
2022-08-26T05:52:14.646Z,3.80
2022-08-26T05:55:07.708Z,3.90
2022-08-26T06:03:22.114Z,3.30
2022-08-26T06:09:22.768Z,3.60
2022-08-26T06:12:48.907Z,3.30
2022-08-26T06:15:43.726Z,3.30
2022-08-26T06:25:47.144Z,3.30
2022-08-26T06:31:46.473Z,3.40
2022-08-26T06:39:13.608Z,3.00
2022-08-26T06:42:06.386Z,2.90
2022-08-26T06:44:40.916Z,3.10
2022-08-26T06:51:05.482Z,2.90
2022-08-26T06:53:55.487Z,3.10
2022-08-26T06:57:21.534Z,2.80
2022-08-26T06:59:56.626Z,2.90
2022-08-26T07:06:12.447Z,2.90
2022-08-26T07:15:27.147Z,3.20
2022-08-26T07:18:38.486Z,3.00
2022-08-26T07:25:24.616Z,3.00
2022-08-26T07:29:10.082Z,2.70
2022-08-26T07:31:43.710Z,3.30
2022-08-26T07:34:34.576Z,3.70
2022-08-26T07:37:08.672Z,3.50
2022-08-26T07:43:08.751Z,3.30
2022-08-26T07:45:42.840Z,3.50
2022-08-26T07:48:34.145Z,3.30
2022-08-26T07:54:49.160Z,3.00
2022-08-26T08:01:08.882Z,3.10
2022-08-26T08:04:01.005Z,3.20
2022-08-26T08:10:38.601Z,2.90
2022-08-26T08:13:12.010Z,3.30
2022-08-26T08:16:12.721Z,3.40
2022-08-26T08:19:03.163Z,3.00
2022-08-26T08:25:08.144Z,3.30
2022-08-26T08:31:08.015Z,2.90
2022-08-26T08:33:41.191Z,2.70
2022-08-26T08:39:42.812Z,3.00
2022-08-26T08:42:36.820Z,3.40
2022-08-26T08:48:27.916Z,3.20
2022-08-26T08:51:11.251Z,3.10
2022-08-26T08:57:13.500Z,3.40
2022-08-26T09:03:56.921Z,3.30
2022-08-26T09:06:30.117Z,3.20
2022-08-26T09:12:50.121Z,3.30
2022-08-26T09:16:14.030Z,3.00
2022-08-26T09:19:19.357Z,2.80
2022-08-26T09:22:27.865Z,3.20
2022-08-26T09:25:18.702Z,3.40
2022-08-26T09:31:21.550Z,3.30
2022-08-26T09:34:17.887Z,3.70
2022-08-26T09:37:10.816Z,3.00
2022-08-26T09:40:45.420Z,3.60
2022-08-26T09:43:23.446Z,3.20
2022-08-26T09:49:32.707Z,3.50
2022-08-26T09:52:16.377Z,3.70
2022-08-26T09:55:16.219Z,3.20
2022-08-26T09:57:51.498Z,3.30
2022-08-26T10:01:01.653Z,3.10
2022-08-26T10:04:14.280Z,3.60
2022-08-26T10:13:52.491Z,3.10
2022-08-26T10:17:05.519Z,3.40
2022-08-26T10:23:34.133Z,3.30
2022-08-26T10:26:50.082Z,3.20
2022-08-26T10:30:17.796Z,3.30
2022-08-26T10:33:14.916Z,3.90
2022-08-26T10:36:15.305Z,3.30
2022-08-26T10:39:29.407Z,3.40
2022-08-26T10:42:39.698Z,3.50
2022-08-26T10:45:35.435Z,3.10
2022-08-26T10:48:35.239Z,3.60
2022-08-26T10:52:19.517Z,3.30
2022-08-26T10:58:44.751Z,3.10
2022-08-26T11:01:54.964Z,3.70
2022-08-26T11:19:01.119Z,3.50
2022-08-26T11:22:05.448Z,3.30
2022-08-26T11:25:14.934Z,3.30
2022-08-26T11:28:07.169Z,3.30
2022-08-26T11:30:56.846Z,4.10
2022-08-26T11:34:14.289Z,3.50
2022-08-26T11:37:01.869Z,3.20
2022-08-26T11:40:05.714Z,3.20
2022-08-26T11:42:43.558Z,3.20
2022-08-26T11:45:55.135Z,2.80
2022-08-26T11:49:21.309Z,3.10
2022-08-26T11:52:13.364Z,3.60
2022-08-26T11:55:05.377Z,3.10
2022-08-26T11:57:45.601Z,3.40
2022-08-26T12:00:45.731Z,3.20
2022-08-26T12:07:04.708Z,2.90
2022-08-26T12:09:56.306Z,2.80
2022-08-26T12:13:03.447Z,2.90
2022-08-26T12:15:55.895Z,2.70
2022-08-26T12:18:50.843Z,3.20
2022-08-26T12:21:44.844Z,3.30
2022-08-26T12:25:13.020Z,3.50
2022-08-26T12:27:51.815Z,3.60
2022-08-26T12:30:59.957Z,3.10
2022-08-26T12:33:36.332Z,2.80
2022-08-26T12:36:29.255Z,3.10
2022-08-26T12:39:48.332Z,3.20
2022-08-26T12:42:44.848Z,2.90
2022-08-26T12:45:58.035Z,3.70
2022-08-26T12:49:09.136Z,2.60
2022-08-26T12:51:58.919Z,3.00
2022-08-26T12:55:09.802Z,2.90
2022-08-26T12:58:36.766Z,3.00
2022-08-26T13:01:28.155Z,3.60
2022-08-26T13:04:18.217Z,2.80
2022-08-26T13:06:51.003Z,3.20
2022-08-26T13:09:37.652Z,2.90
2022-08-26T13:12:11.778Z,3.50
2022-08-26T13:14:44.820Z,3.70
2022-08-26T13:17:36.197Z,3.30
2022-08-26T13:20:26.859Z,3.40
2022-08-26T13:23:00.593Z,3.20
2022-08-26T13:42:23.329Z,2.50
2022-08-26T13:44:58.257Z,3.40
2022-08-26T13:47:31.793Z,2.80
2022-08-26T13:50:22.044Z,2.90
2022-08-26T13:56:23.351Z,3.20
2022-08-26T13:59:15.126Z,2.80
2022-08-26T14:02:05.439Z,3.00
2022-08-26T14:11:11.937Z,2.80
2022-08-26T14:13:44.931Z,3.40
2022-08-26T14:16:23.611Z,3.00
2022-08-26T14:26:08.534Z,2.80
2022-08-26T14:29:17.073Z,2.80
2022-08-26T14:36:17.231Z,3.00
2022-08-26T14:39:08.354Z,3.40
2022-08-26T14:41:44.965Z,3.00
2022-08-26T14:44:37.298Z,3.10
2022-08-26T14:47:29.349Z,3.50
2022-08-26T14:50:37.073Z,3.10
2022-08-26T14:53:52.740Z,3.20
2022-08-26T14:56:26.716Z,2.60
2022-08-26T14:59:35.874Z,2.50
2022-08-26T15:02:43.785Z,2.30
2022-08-26T15:05:17.201Z,2.40
2022-08-26T15:11:37.456Z,2.30
2022-08-26T15:14:45.418Z,2.20
2022-08-26T15:18:11.764Z,1.90
2022-08-26T15:21:36.454Z,2.10
2022-08-26T15:24:46.673Z,1.70
2022-08-26T15:27:56.383Z,1.60
2022-08-26T15:30:46.362Z,1.70
2022-08-26T15:33:40.717Z,2.10
2022-08-26T15:37:26.313Z,2.10
2022-08-26T15:43:29.148Z,1.70
2022-08-26T15:46:02.367Z,1.70
2022-08-26T15:48:38.557Z,1.70
2022-08-26T16:01:09.523Z,1.40
2022-08-26T16:07:07.637Z,2.20
2022-08-26T16:10:00.181Z,1.60
2022-08-26T16:12:33.078Z,1.70
2022-08-26T16:15:29.200Z,1.80
2022-08-26T16:18:18.047Z,1.90
2022-08-26T16:21:29.432Z,2.40
2022-08-26T16:27:48.360Z,1.80
2022-08-26T16:33:47.144Z,1.80
2022-08-26T16:37:29.514Z,1.80
2022-08-26T16:44:31.281Z,2.10
2022-08-26T16:47:04.423Z,2.50
2022-08-26T16:49:38.126Z,2.20
2022-08-26T16:52:46.730Z,2.60
2022-08-26T16:55:45.505Z,2.00
2022-08-26T17:02:00.864Z,2.10
2022-08-26T17:04:33.540Z,2.50
2022-08-26T17:07:25.716Z,3.20
2022-08-26T17:09:59.221Z,2.20
2022-08-26T17:12:51.578Z,2.60
2022-08-26T17:16:00.000Z,2.70
2022-08-26T17:18:34.089Z,2.60
2022-08-26T17:24:34.493Z,2.30
2022-08-26T17:34:00.720Z,2.50
2022-08-26T17:36:50.914Z,2.50
2022-08-26T17:43:11.670Z,2.70
2022-08-26T17:45:44.955Z,2.60
2022-08-26T17:52:17.959Z,2.80
2022-08-26T17:55:45.267Z,3.00
2022-08-26T18:01:58.948Z,3.10
2022-08-26T18:04:31.768Z,2.70
2022-08-26T18:07:43.860Z,2.90
2022-08-26T18:10:20.250Z,3.30
2022-08-26T18:15:54.824Z,3.20
2022-08-26T18:18:45.554Z,3.30
2022-08-26T18:21:37.732Z,3.00
2022-08-26T18:24:30.615Z,2.70
2022-08-26T18:27:04.025Z,2.90
2022-08-26T18:29:54.771Z,3.30
2022-08-26T18:33:03.425Z,2.70
2022-08-26T18:36:28.343Z,3.00
2022-08-26T18:39:19.271Z,4.10
2022-08-26T18:42:31.455Z,3.20
2022-08-26T18:45:41.396Z,3.20
2022-08-26T18:48:51.227Z,3.60
2022-08-26T18:51:45.694Z,3.10
2022-08-26T18:54:39.028Z,3.00
2022-08-26T18:58:05.646Z,3.00
2022-08-26T19:03:47.432Z,2.80
2022-08-26T19:07:13.015Z,3.30
2022-08-26T19:10:05.291Z,2.80
2022-08-26T19:13:00.793Z,3.20
2022-08-26T19:15:53.106Z,3.40
2022-08-26T19:19:17.758Z,3.10
2022-08-26T19:21:52.158Z,3.70
2022-08-26T19:24:59.670Z,2.90
2022-08-26T19:27:50.326Z,3.00
2022-08-26T19:31:07.017Z,3.40
2022-08-26T19:34:31.848Z,2.90
2022-08-26T19:44:37.259Z,3.90
2022-08-26T19:51:15.288Z,3.00
2022-08-26T19:54:23.295Z,4.90
2022-08-26T20:00:25.210Z,3.60
2022-08-26T20:02:57.997Z,3.20
2022-08-26T20:06:07.077Z,3.40
2022-08-26T20:08:58.791Z,3.80
2022-08-26T20:21:46.804Z,3.40
2022-08-26T20:25:13.589Z,3.50
2022-08-26T20:32:09.369Z,3.30
2022-08-26T20:37:50.803Z,2.90
2022-08-26T20:40:59.328Z,3.70
2022-08-26T20:43:49.453Z,3.70
2022-08-26T20:49:48.255Z,3.50
2022-08-26T20:52:43.964Z,3.70
2022-08-26T20:55:51.716Z,3.10
2022-08-26T20:58:24.988Z,4.20
2022-08-26T21:04:57.770Z,3.50
2022-08-26T21:07:30.537Z,3.20
2022-08-26T21:10:04.693Z,3.80
2022-08-26T21:12:59.002Z,3.40
2022-08-26T21:15:49.320Z,5.00
2022-08-26T21:18:41.894Z,4.00
2022-08-26T21:21:49.751Z,3.50
2022-08-26T21:24:57.045Z,3.60
2022-08-26T21:27:47.218Z,3.30
2022-08-26T21:30:21.143Z,3.40
2022-08-26T21:35:52.212Z,3.40
2022-08-26T21:38:28.418Z,3.70
2022-08-26T21:41:22.245Z,3.20
2022-08-26T21:49:44.210Z,3.70
2022-08-26T21:52:17.201Z,3.80
2022-08-26T21:54:52.068Z,4.00
2022-08-26T21:58:02.715Z,4.10
2022-08-26T22:01:31.580Z,3.60
2022-08-26T22:04:05.977Z,3.90
2022-08-26T22:09:55.755Z,3.70
2022-08-26T22:12:47.206Z,3.70
2022-08-26T22:15:41.378Z,4.10
2022-08-26T22:18:32.484Z,3.50
2022-08-26T22:24:50.708Z,3.90
2022-08-26T22:32:02.731Z,3.90
2022-08-26T22:37:43.843Z,4.20
2022-08-26T22:40:35.222Z,3.60
2022-08-26T22:43:43.238Z,3.90
2022-08-26T22:46:54.609Z,3.90
2022-08-26T22:52:58.448Z,3.80
2022-08-26T22:56:06.518Z,4.20
2022-08-26T22:58:40.151Z,3.50
2022-08-26T23:01:13.475Z,3.40
2022-08-26T23:06:54.498Z,4.20
2022-08-26T23:10:21.023Z,3.60
2022-08-26T23:16:18.959Z,3.60
2022-08-26T23:18:53.066Z,4.40
2022-08-26T23:21:43.541Z,4.20
2022-08-26T23:24:33.754Z,4.20
2022-08-26T23:27:23.434Z,3.80
2022-08-26T23:33:48.372Z,3.80
2022-08-26T23:36:22.527Z,3.50
2022-08-26T23:39:48.427Z,3.30
2022-08-26T23:45:47.385Z,3.10
2022-08-26T23:48:37.627Z,4.00
2022-08-26T23:51:46.758Z,3.50
2022-08-26T23:55:13.715Z,3.20
